createdAt,value
2022-11-18T00:03:33.489Z,6
2022-11-18T00:08:31.706Z,6.2
2022-11-18T00:13:29.985Z,6.2
2022-11-18T00:18:28.140Z,6.1
2022-11-18T00:23:26.139Z,5.6
2022-11-18T00:28:23.938Z,5.4
2022-11-18T00:33:22.175Z,5.4
2022-11-18T00:38:20.707Z,5.4
2022-11-18T00:43:19.199Z,5.3
2022-11-18T00:48:17.252Z,5.4
2022-11-18T00:53:15.774Z,5.6
2022-11-18T00:58:13.983Z,5.6
2022-11-18T01:03:12.296Z,5.7
2022-11-18T01:08:10.624Z,5.8
2022-11-18T01:13:09.210Z,6.1
2022-11-18T01:18:07.705Z,6.3
2022-11-18T01:23:05.966Z,6.4
2022-11-18T01:28:04.242Z,6.4
2022-11-18T01:33:02.675Z,6.6
2022-11-18T01:38:00.998Z,6.6
2022-11-18T01:42:59.236Z,7
2022-11-18T01:47:57.463Z,7
2022-11-18T01:52:55.546Z,7
2022-11-18T01:57:53.538Z,7.1
2022-11-18T02:02:51.649Z,7.2
2022-11-18T02:07:49.980Z,7.2
2022-11-18T02:12:48.235Z,6.9
2022-11-18T02:17:46.372Z,6.8
2022-11-18T02:22:44.503Z,6.8
2022-11-18T02:27:42.668Z,6.7
2022-11-18T02:32:40.620Z,6.6
2022-11-18T02:37:38.784Z,6.3
2022-11-18T02:42:37.112Z,6.2
2022-11-18T02:47:35.406Z,6.2
2022-11-18T02:52:33.730Z,6.2
2022-11-18T02:57:32.012Z,6.4
2022-11-18T03:02:30.179Z,6.5
2022-11-18T03:07:28.397Z,6.4
2022-11-18T03:12:26.532Z,6.5
2022-11-18T03:17:24.932Z,6.5
2022-11-18T03:22:23.138Z,6.3
2022-11-18T03:27:21.350Z,6.4
2022-11-18T03:32:19.498Z,6.5
2022-11-18T03:37:17.731Z,6.4
2022-11-18T03:42:16.079Z,6.5
2022-11-18T03:47:14.515Z,6.6
2022-11-18T03:52:12.732Z,6.7
2022-11-18T03:57:10.898Z,6.5
2022-11-18T04:02:09.122Z,6.5
2022-11-18T04:07:07.310Z,6.6
2022-11-18T04:12:05.496Z,6.8
2022-11-18T04:17:03.614Z,6.5
2022-11-18T04:22:01.973Z,6.6
2022-11-18T04:27:00.164Z,6.7
2022-11-18T04:31:58.788Z,6.8
2022-11-18T04:36:57.073Z,6.9
2022-11-18T04:41:55.414Z,6.9
2022-11-18T04:46:53.381Z,6.9
2022-11-18T04:51:51.650Z,6.7
2022-11-18T04:56:50.042Z,6.6
2022-11-18T05:01:47.147Z,6.6
2022-11-18T05:06:45.328Z,6.4
2022-11-18T05:11:42.530Z,6.3
2022-11-18T05:16:40.549Z,6
2022-11-18T05:21:38.603Z,5.8
2022-11-18T05:26:37.033Z,6.1
2022-11-18T05:31:35.340Z,6.4
2022-11-18T05:36:33.532Z,6.6
2022-11-18T05:41:32.080Z,6.9
2022-11-18T05:46:30.785Z,7.2
2022-11-18T05:51:29.333Z,7.6
2022-11-18T05:56:27.818Z,7.5
2022-11-18T06:01:26.180Z,7.2
2022-11-18T06:06:24.312Z,7.4
2022-11-18T06:11:22.997Z,7.3
2022-11-18T06:16:21.788Z,8.3
2022-11-18T06:21:21.401Z,9.5
2022-11-18T06:26:20.642Z,10.6
2022-11-18T06:31:19.169Z,10.5
2022-11-18T06:36:17.308Z,10.4
2022-11-18T06:41:15.927Z,10.7
2022-11-18T06:46:14.484Z,11.2
2022-11-18T06:51:12.702Z,11.1
2022-11-18T06:56:10.292Z,10.3
2022-11-18T07:01:08.649Z,10.7
2022-11-18T07:06:06.789Z,11
2022-11-18T07:11:06.385Z,12.3
2022-11-18T07:16:05.752Z,13.5
2022-11-18T07:21:05.551Z,14.6
2022-11-18T07:26:03.641Z,13.6
2022-11-18T07:31:01.815Z,14.8
2022-11-18T07:36:01.774Z,16.4
2022-11-18T07:41:01.984Z,18.3
2022-11-18T07:46:01.122Z,18.9
2022-11-18T07:50:59.776Z,19
2022-11-18T07:55:58.378Z,20.2
2022-11-18T08:00:56.106Z,19.2
2022-11-18T08:05:53.212Z,18.5
2022-11-18T08:10:51.248Z,17.8
2022-11-18T08:15:48.362Z,16.3
2022-11-18T08:20:46.227Z,16.5
2022-11-18T08:25:45.355Z,17.2
2022-11-18T08:30:43.766Z,16.8
2022-11-18T08:35:41.639Z,17.2
2022-11-18T08:40:41.838Z,19
2022-11-18T08:45:40.564Z,19.4
2022-11-18T08:50:40.821Z,21.4
2022-11-18T08:55:42.386Z,24.7
2022-11-18T09:00:41.276Z,24.5
2022-11-18T09:05:37.069Z,22.2
2022-11-18T09:10:34.649Z,21.2
2022-11-18T09:15:31.476Z,21.2
2022-11-18T09:20:29.786Z,20.8
2022-11-18T09:25:30.413Z,22.9
2022-11-18T09:30:31.936Z,24.6
2022-11-18T09:35:33.265Z,27.1
2022-11-18T09:40:30.854Z,27.1
2022-11-18T09:45:31.458Z,28.7
2022-11-18T09:55:23.950Z,26.4
2022-11-18T10:00:22.123Z,27.1
2022-11-18T10:05:23.501Z,30.1
2022-11-18T10:10:18.927Z,27.2
2022-11-18T10:15:17.177Z,29.5
2022-11-18T10:20:15.989Z,28
2022-11-18T10:25:10.803Z,24.9
2022-11-18T10:30:07.592Z,24.3
2022-11-18T10:35:08.433Z,28.9
2022-11-18T10:40:07.477Z,28.7
2022-11-18T10:45:05.492Z,27.9
2022-11-18T10:50:04.527Z,28.1
2022-11-18T10:55:01.011Z,26.1
2022-11-18T10:59:57.655Z,24.5
2022-11-18T11:04:54.338Z,23.3
2022-11-18T11:09:51.857Z,22.6
2022-11-18T11:14:49.502Z,21.9
2022-11-18T11:19:47.303Z,21.9
2022-11-18T11:24:45.330Z,21.6
2022-11-18T11:29:42.977Z,20.7
2022-11-18T11:34:40.380Z,20.1
2022-11-18T11:39:38.065Z,19.7
2022-11-18T11:44:36.225Z,19.7
2022-11-18T11:49:34.048Z,19.2
2022-11-18T11:54:32.159Z,19.3
2022-11-18T11:59:30.232Z,19.2
2022-11-18T12:04:28.537Z,19.1
2022-11-18T12:09:27.393Z,19.8
2022-11-18T12:14:25.779Z,19.5
2022-11-18T12:19:23.680Z,18.7
2022-11-18T12:24:21.311Z,18.4
2022-11-18T12:29:19.402Z,17.7
2022-11-18T12:34:16.701Z,17.1
2022-11-18T12:39:14.512Z,16.7
2022-11-18T12:44:12.288Z,16.5
2022-11-18T12:49:10.362Z,16.3
2022-11-18T12:54:12.603Z,16.2
2022-11-18T12:59:06.376Z,16.1
2022-11-18T13:04:04.549Z,16.3
2022-11-18T13:09:02.731Z,16.5
2022-11-18T13:14:01.191Z,16.5
2022-11-18T13:18:59.216Z,16.4
2022-11-18T13:24:00.605Z,15.9
2022-11-18T13:28:55.094Z,15.8
2022-11-18T13:33:53.297Z,15.6
2022-11-18T13:38:51.362Z,15.6
2022-11-18T13:43:53.815Z,15.5
2022-11-18T13:48:47.753Z,15.3
2022-11-18T13:53:45.856Z,15.2
2022-11-18T13:59:10.733Z,15
2022-11-18T14:03:41.838Z,14.9
2022-11-18T14:08:39.930Z,14.9
2022-11-18T14:13:38.033Z,14.7
2022-11-18T14:18:35.938Z,14.7
2022-11-18T14:23:34.197Z,14.6
2022-11-18T14:28:32.384Z,14.4
2022-11-18T14:33:30.463Z,14.2
2022-11-18T14:38:40.975Z,14.3
2022-11-18T14:43:26.732Z,14.4
2022-11-18T14:48:28.406Z,14.2
2022-11-18T14:53:37.086Z,13.9
2022-11-18T14:58:32.706Z,13.7
2022-11-18T15:03:30.726Z,13.5
2022-11-18T15:08:29.077Z,13.4
2022-11-18T15:13:27.180Z,13.3
2022-11-18T15:18:25.371Z,13.5
2022-11-18T15:23:28.564Z,13.5
2022-11-18T15:28:21.995Z,13.4
2022-11-18T15:33:20.030Z,13.4
2022-11-18T15:38:18.230Z,13.5
2022-11-18T15:43:16.303Z,13.3
2022-11-18T15:48:14.504Z,13.3
2022-11-18T15:53:12.845Z,13.3
2022-11-18T15:58:10.874Z,13.2
2022-11-18T16:03:08.851Z,13.3
2022-11-18T16:08:06.772Z,13
2022-11-18T16:13:04.806Z,12.9
2022-11-18T16:18:02.904Z,12.8
2022-11-18T16:23:00.877Z,12.8
2022-11-18T16:28:03.775Z,12.7
2022-11-18T16:32:57.140Z,12.6
2022-11-18T16:37:55.274Z,12.5
2022-11-18T16:42:53.636Z,12.3
2022-11-18T16:47:51.559Z,12.2
2022-11-18T16:52:49.873Z,12.3
2022-11-18T16:57:48.157Z,12.3
2022-11-18T17:02:46.170Z,12.2
2022-11-18T17:07:44.319Z,12.2
2022-11-18T17:12:42.773Z,12.2
2022-11-18T17:17:40.815Z,12.3
2022-11-18T17:22:38.824Z,12.1
2022-11-18T17:27:37.077Z,12.3
2022-11-18T17:32:35.300Z,12.4
2022-11-18T17:37:33.637Z,12.5
2022-11-18T17:42:32.019Z,12.6
2022-11-18T17:47:30.925Z,12.6
2022-11-18T17:52:29.507Z,12.5
2022-11-18T17:57:27.916Z,12.7
2022-11-18T18:02:26.191Z,12.7
2022-11-18T18:07:24.831Z,12.8
2022-11-18T18:12:22.911Z,12.9
2022-11-18T18:17:21.218Z,12.9
2022-11-18T18:22:19.713Z,13
2022-11-18T18:27:18.261Z,13.1
2022-11-18T18:32:16.858Z,13.1
2022-11-18T18:37:15.290Z,13.1
2022-11-18T18:42:13.737Z,13.3
2022-11-18T18:47:12.192Z,13.2
2022-11-18T18:52:10.525Z,13.1
2022-11-18T18:57:08.934Z,13
2022-11-18T19:02:07.390Z,13.1
2022-11-18T19:07:05.629Z,12.9
2022-11-18T19:12:03.893Z,12.8
2022-11-18T19:17:09.377Z,12.8
2022-11-18T19:22:01.645Z,13
2022-11-18T19:27:00.722Z,13
2022-11-18T19:31:59.201Z,13.1
2022-11-18T19:36:57.347Z,13.2
2022-11-18T19:41:56.277Z,13.4
2022-11-18T19:46:54.583Z,13.4
2022-11-18T19:51:52.907Z,13.3
2022-11-18T19:56:51.213Z,13.4
2022-11-18T20:01:49.208Z,13.4
2022-11-18T20:06:47.506Z,13.4
2022-11-18T20:11:45.949Z,13.3
2022-11-18T20:16:44.133Z,13.1
2022-11-18T20:21:42.396Z,13.5
2022-11-18T20:26:40.518Z,13.4
2022-11-18T20:31:38.792Z,13.4
2022-11-18T20:36:36.845Z,13.3
2022-11-18T20:41:34.964Z,13.3
2022-11-18T20:46:33.347Z,13.3
2022-11-18T20:51:32.193Z,13.2
2022-11-18T20:56:30.506Z,13.1
2022-11-18T21:01:28.810Z,12.9
2022-11-18T21:06:26.836Z,12.9
2022-11-18T21:11:24.936Z,12.8
2022-11-18T21:16:23.005Z,12.8
2022-11-18T21:21:21.356Z,12.9
2022-11-18T21:26:19.553Z,12.7
2022-11-18T21:31:21.999Z,12.9
2022-11-18T21:36:15.659Z,12.8
2022-11-18T21:41:13.836Z,12.8
2022-11-18T21:46:12.025Z,12.9
2022-11-18T21:51:10.424Z,12.8
2022-11-18T21:56:08.645Z,12.6
2022-11-18T22:01:06.863Z,12.6
2022-11-18T22:06:05.039Z,12.8
2022-11-18T22:11:03.187Z,12.8
2022-11-18T22:16:01.393Z,12.4
2022-11-18T22:20:59.130Z,12.5
2022-11-18T22:25:57.363Z,12.5
2022-11-18T22:30:55.473Z,12.5
2022-11-18T22:35:53.774Z,12.8
2022-11-18T22:40:51.923Z,13
2022-11-18T22:45:50.320Z,13.1
2022-11-18T22:50:48.787Z,13.3
2022-11-18T22:55:47.083Z,13.4
2022-11-18T23:00:45.230Z,13.6
2022-11-18T23:05:43.588Z,13.6
2022-11-18T23:10:41.900Z,13.6
2022-11-18T23:15:40.199Z,13.5
2022-11-18T23:20:38.321Z,13.6
2022-11-18T23:25:36.349Z,13.4
2022-11-18T23:30:34.180Z,13.4
2022-11-18T23:35:32.213Z,13.2
2022-11-18T23:40:30.262Z,13
2022-11-18T23:45:28.277Z,12.8
2022-11-18T23:50:26.298Z,12.4
2022-11-18T23:55:24.262Z,12.2
